Terminal Aerodrome Forecast
Issued by NWS Pittsburgh, PA

Current Version | Previous Version | Graphics & Text | Print | Product List | Glossary On
Versions: 1 2 3 4 5 6 7 8 9 10 11 12 13 14 15 16 17 18 19 20 21 22 23 24 25 26 27
000
FTUS41 KPBZ 051124
TAFPIT
TAF
KPIT 051124Z 0512/0618 27010G18KT P6SM BKN015
     FM051600 28007KT P6SM BKN020
     FM051900 27006KT P6SM BKN040
     FM061500 11009KT 6SM -RA OVC060=

USA.gov is the U.S. government's official web portal to all federal, state and local government web resources and services.